Time;durP1;ratioP1;P1;durP2;ratioP2;P2;SDS_P1;SDS_P2;PMS_P1;PMS_P2;Temp;Humidity;BMP_temperature;BMP_pressure;BME280_temperature;BME280_humidity;BME280_pressure;Samples;Min_cycle;Max_cycle;Signal;HPM_P1;HPM_P2
2023/05/08 00:02:17;;;;;;;8.40;3.63;;;;;;;10.21;100.00;100914.94;5116047;28;20496;-86
2023/05/08 00:04:44;;;;;;;11.98;3.90;;;;;;;10.53;100.00;100940.06;5111285;28;20161;-86
2023/05/08 00:07:11;;;;;;;11.23;4.22;;;;;;;10.38;100.00;100927.50;5104184;28;20043;-86
2023/05/08 00:09:37;;;;;;;12.32;4.38;;;;;;;10.05;100.00;100901.50;5112255;28;20040;-87
2023/05/08 00:12:04;;;;;;;18.92;4.63;;;;;;;10.30;100.00;100909.38;5099052;28;20044;-87
2023/05/08 00:14:31;;;;;;;15.25;4.85;;;;;;;10.19;100.00;100922.84;5113576;28;20056;-86
2023/05/08 00:16:58;;;;;;;11.20;3.55;;;;;;;10.42;100.00;100929.94;5104777;28;20043;-87
2023/05/08 00:19:25;;;;;;;18.05;4.72;;;;;;;10.56;100.00;100934.72;5115713;28;20512;-87
2023/05/08 00:21:51;;;;;;;12.98;4.40;;;;;;;10.18;100.00;100900.22;5113813;28;20043;-87
2023/05/08 00:24:18;;;;;;;10.70;3.67;;;;;;;10.22;100.00;100920.13;5114450;28;20047;-87
2023/05/08 00:26:45;;;;;;;37.45;5.88;;;;;;;10.30;100.00;100906.78;5113603;28;20680;-87
2023/05/08 00:29:12;;;;;;;10.50;4.15;;;;;;;10.28;100.00;100895.50;5116241;27;20047;-86
2023/05/08 00:31:38;;;;;;;6.80;2.67;;;;;;;10.34;100.00;100876.16;5113788;28;20054;-85
2023/05/08 00:34:05;;;;;;;13.90;3.70;;;;;;;10.40;100.00;100894.28;5112903;28;20123;-86
2023/05/08 00:36:32;;;;;;;12.32;3.63;;;;;;;10.34;100.00;100863.06;5116043;28;20048;-86
2023/05/08 00:38:59;;;;;;;10.68;3.85;;;;;;;10.34;100.00;100879.66;5114429;28;20046;-85
2023/05/08 00:41:26;;;;;;;13.48;3.92;;;;;;;10.22;100.00;100851.25;5116001;28;20051;-86
2023/05/08 00:43:52;;;;;;;9.15;3.35;;;;;;;10.50;100.00;100879.09;5112804;28;20043;-86
2023/05/08 00:46:19;;;;;;;9.45;3.45;;;;;;;10.50;100.00;100872.13;5109274;28;20043;-86
2023/05/08 00:48:46;;;;;;;13.98;4.18;;;;;;;10.63;100.00;100878.59;5105481;28;20496;-86
2023/05/08 00:51:15;;;;;;;8.18;2.97;;;;;;;10.71;100.00;100891.44;5113540;28;20039;-85
2023/05/08 00:53:44;;;;;;;10.55;3.80;;;;;;;10.55;100.00;100858.84;5112636;28;20050;-86
2023/05/08 00:56:15;;;;;;;9.02;3.75;;;;;;;10.53;100.00;100871.97;5112736;28;20048;-86
2023/05/08 00:58:43;;;;;;;8.32;3.30;;;;;;;10.70;100.00;100858.31;5110699;28;20542;-86
2023/05/08 01:01:10;;;;;;;10.50;3.17;;;;;;;10.24;100.00;100810.16;5114182;28;20674;-86
2023/05/08 01:03:38;;;;;;;13.23;4.05;;;;;;;10.34;100.00;100848.25;5112813;28;20043;-86
2023/05/08 01:06:05;;;;;;;8.85;3.20;;;;;;;10.20;100.00;100835.59;5099162;28;20054;-86
2023/05/08 01:08:32;;;;;;;21.15;3.80;;;;;;;10.13;100.00;100851.53;5108623;28;20048;-86
2023/05/08 01:11:08;;;;;;;13.38;3.80;;;;;;;10.42;100.00;100884.59;5106749;28;20382;-85
2023/05/08 01:14:08;;;;;;;7.15;2.85;;;;;;;10.50;100.00;100890.44;5107430;28;20526;-85
2023/05/08 01:17:00;;;;;;;11.27;3.88;;;;;;;10.12;100.00;100824.53;5107906;28;20047;-85
2023/05/08 01:19:48;;;;;;;11.32;3.53;;;;;;;10.22;100.00;100849.47;5098753;28;20075;-85
2023/05/08 01:22:22;;;;;;;7.40;3.00;;;;;;;10.23;100.00;100856.44;5112849;28;20499;-86
2023/05/08 01:25:36;;;;;;;11.38;3.67;;;;;;;10.40;100.00;100884.66;5099162;28;20466;-85
2023/05/08 01:28:35;;;;;;;7.43;2.90;;;;;;;10.25;100.00;100859.84;5114894;28;20066;-86
2023/05/08 01:31:06;;;;;;;13.70;3.90;;;;;;;10.10;100.00;100847.28;5090326;28;20044;-85
2023/05/08 01:33:54;;;;;;;11.60;2.90;;;;;;;10.33;100.00;100879.69;5112302;28;20047;-85
2023/05/08 01:36:57;;;;;;;32.25;5.13;;;;;;;10.22;100.00;100877.41;5112731;28;20477;-85
2023/05/08 01:39:42;;;;;;;9.25;3.33;;;;;;;10.11;100.00;100843.75;5113745;28;20566;-85
2023/05/08 01:42:33;;;;;;;17.10;4.18;;;;;;;10.25;100.00;100877.28;5112526;28;20047;-85
2023/05/08 01:45:06;;;;;;;10.65;3.78;;;;;;;9.85;100.00;100818.47;5114446;28;20043;-85
2023/05/08 01:47:37;;;;;;;17.05;3.97;;;;;;;9.92;100.00;100819.97;5100565;28;20044;-85
2023/05/08 01:50:29;;;;;;;17.40;3.85;;;;;;;10.43;100.00;100874.09;5102099;28;20055;-84
2023/05/08 01:53:02;;;;;;;12.13;3.40;;;;;;;10.54;100.00;100859.78;5104274;28;20066;-85
2023/05/08 01:55:34;;;;;;;7.63;3.05;;;;;;;10.40;100.00;100855.84;5114506;27;20071;-84
2023/05/08 01:58:06;;;;;;;8.30;3.47;;;;;;;10.41;100.00;100841.88;5113083;28;20491;-85
2023/05/08 02:00:33;;;;;;;8.68;3.08;;;;;;;10.24;100.00;100784.00;5111845;28;20059;-85
2023/05/08 02:03:01;;;;;;;6.90;2.63;;;;;;;10.35;100.00;100794.97;5117792;27;20473;-85
2023/05/08 02:05:29;;;;;;;8.60;3.80;;;;;;;10.47;100.00;100840.81;5106772;28;20067;-85
2023/05/08 02:07:57;;;;;;;9.27;3.78;;;;;;;10.60;100.00;100831.59;5111485;28;20047;-85
2023/05/08 02:10:25;;;;;;;7.28;2.95;;;;;;;10.51;100.00;100808.34;5114082;28;20054;-85
2023/05/08 02:12:54;;;;;;;8.32;3.22;;;;;;;10.45;100.00;100791.13;5111776;28;20048;-84
2023/05/08 02:15:24;;;;;;;8.32;3.03;;;;;;;10.80;100.00;100841.34;5114061;28;20044;-85
2023/05/08 02:17:53;;;;;;;7.57;3.20;;;;;;;10.60;100.00;100802.78;5104516;28;20054;-85
2023/05/08 02:20:21;;;;;;;9.20;3.53;;;;;;;10.74;100.00;100836.31;5113717;28;20101;-85
2023/05/08 02:22:50;;;;;;;8.95;3.00;;;;;;;10.80;100.00;100833.50;5113249;28;20494;-85
2023/05/08 02:25:18;;;;;;;8.82;3.60;;;;;;;10.64;100.00;100830.59;5112782;28;20040;-85
2023/05/08 02:27:47;;;;;;;8.68;3.58;;;;;;;10.64;100.00;100820.09;5098771;28;20055;-85
2023/05/08 02:30:15;;;;;;;10.10;4.65;;;;;;;10.57;100.00;100799.41;5099180;28;20469;-85
2023/05/08 02:32:44;;;;;;;9.48;3.78;;;;;;;10.55;100.00;100802.13;5111500;28;20043;-85
2023/05/08 02:35:13;;;;;;;8.13;3.38;;;;;;;10.66;100.00;100799.09;5112658;28;20035;-86
2023/05/08 02:37:45;;;;;;;7.47;3.03;;;;;;;10.64;100.00;100775.59;5113674;28;20055;-85
2023/05/08 02:40:15;;;;;;;8.13;3.67;;;;;;;10.76;100.00;100794.38;5108492;28;20465;-86
2023/05/08 02:42:43;;;;;;;9.35;4.05;;;;;;;10.57;100.00;100765.38;5101477;28;20059;-85
2023/05/08 02:45:11;;;;;;;10.30;4.60;;;;;;;10.37;100.00;100743.41;5113035;28;20047;-85
2023/05/08 02:47:45;;;;;;;11.05;3.97;;;;;;;10.50;100.00;100767.41;5112808;28;20485;-85
2023/05/08 02:50:22;;;;;;;9.05;3.92;;;;;;;10.69;100.00;100769.31;5114002;28;20105;-85
2023/05/08 02:53:01;;;;;;;9.10;4.10;;;;;;;10.42;100.00;100751.94;5116913;28;20056;-85
2023/05/08 02:55:28;;;;;;;10.15;3.35;;;;;;;10.72;100.00;100800.63;5116678;28;20496;-85
2023/05/08 02:58:10;;;;;;;9.30;3.95;;;;;;;10.83;100.00;100799.31;5115460;28;20051;-85
2023/05/08 03:00:44;;;;;;;9.48;3.78;;;;;;;10.62;100.00;100794.88;5115018;28;20058;-85
2023/05/08 03:03:22;;;;;;;9.95;4.43;;;;;;;10.55;100.00;100788.16;5110484;28;20097;-85
2023/05/08 03:05:55;;;;;;;9.80;4.00;;;;;;;10.46;100.00;100784.09;5114997;28;20040;-85
2023/05/08 03:08:33;;;;;;;9.65;3.83;;;;;;;10.40;100.00;100748.53;5115667;28;20404;-86
2023/05/08 03:11:17;;;;;;;8.32;3.22;;;;;;;10.86;100.00;100792.28;5115357;28;20401;-85
2023/05/08 03:13:47;;;;;;;9.07;3.78;;;;;;;10.31;100.00;100721.84;5113923;28;20050;-86
2023/05/08 03:16:21;;;;;;;10.13;4.00;;;;;;;10.63;100.00;100766.00;5103302;28;20473;-86
2023/05/08 03:18:52;;;;;;;10.00;4.25;;;;;;;10.67;100.00;100790.31;5109765;28;20052;-86
2023/05/08 03:21:21;;;;;;;12.77;4.88;;;;;;;10.84;100.00;100784.47;5117179;28;20047;-85
2023/05/08 03:23:51;;;;;;;12.85;6.18;;;;;;;10.61;100.00;100741.66;5121415;27;20055;-86
2023/05/08 03:26:18;;;;;;;10.63;4.75;;;;;;;10.71;100.00;100757.03;5115927;28;20048;-86
2023/05/08 03:28:48;;;;;;;9.57;4.18;;;;;;;10.35;100.00;100682.44;5116977;28;20067;-86
2023/05/08 03:31:20;;;;;;;8.60;3.10;;;;;;;10.48;100.00;100685.44;5116528;28;20056;-84
2023/05/08 03:33:49;;;;;;;9.40;4.30;;;;;;;11.00;100.00;100764.63;5115429;28;20047;-84
2023/05/08 03:36:17;;;;;;;8.77;3.22;;;;;;;10.75;100.00;100699.25;5117112;28;20625;-85
2023/05/08 03:38:44;;;;;;;11.70;4.60;;;;;;;10.64;100.00;100683.06;5117400;27;20055;-85
2023/05/08 03:41:11;;;;;;;11.48;4.30;;;;;;;10.96;100.00;100741.22;5115710;28;20039;-84
2023/05/08 03:43:39;;;;;;;12.68;5.60;;;;;;;10.75;100.00;100733.28;5114096;28;20112;-85
2023/05/08 03:46:07;;;;;;;12.27;5.18;;;;;;;10.77;100.00;100723.59;5115673;28;20423;-85
2023/05/08 03:48:34;;;;;;;14.18;5.57;;;;;;;10.64;100.00;100710.13;5117264;28;20492;-85
2023/05/08 03:51:03;;;;;;;12.95;5.15;;;;;;;10.85;100.00;100720.66;5115122;28;20048;-85
2023/05/08 03:53:31;;;;;;;11.52;5.28;;;;;;;10.41;100.00;100673.47;5110499;28;20054;-85
2023/05/08 03:55:58;;;;;;;14.48;7.05;;;;;;;10.61;100.00;100714.63;5115682;28;20397;-85
2023/05/08 03:58:33;;;;;;;17.52;8.20;;;;;;;10.19;100.00;100668.19;5114682;28;20052;-86
2023/05/08 04:01:11;;;;;;;17.05;7.20;;;;;;;10.72;100.00;100716.84;5113361;28;20044;-84
2023/05/08 04:04:01;;;;;;;14.90;7.03;;;;;;;10.30;100.00;100693.94;5112747;28;20050;-86
2023/05/08 04:06:36;;;;;;;12.57;6.30;;;;;;;10.72;100.00;100720.31;5116218;27;20051;-86
2023/05/08 04:09:26;;;;;;;16.88;7.22;;;;;;;10.39;100.00;100709.34;5114976;28;20054;-86
2023/05/08 04:11:55;;;;;;;17.02;8.02;;;;;;;10.83;100.00;100725.13;5115299;28;20043;-86
2023/05/08 04:14:26;;;;;;;19.77;8.55;;;;;;;10.65;100.00;100705.75;5114666;28;20046;-85
2023/05/08 04:17:01;;;;;;;15.32;6.97;;;;;;;10.62;100.00;100717.19;5115014;28;20536;-83
2023/05/08 04:19:32;;;;;;;14.63;6.25;;;;;;;10.78;100.00;100732.31;5114135;28;20040;-85
2023/05/08 04:22:06;;;;;;;17.42;5.97;;;;;;;10.63;100.00;100679.59;5113818;28;20397;-87
2023/05/08 04:24:40;;;;;;;18.92;6.38;;;;;;;10.72;100.00;100716.84;5110716;28;20043;-86
2023/05/08 04:27:09;;;;;;;14.60;7.50;;;;;;;10.29;100.00;100659.09;5104295;28;20055;-85
2023/05/08 04:29:36;;;;;;;13.68;6.13;;;;;;;10.72;100.00;100695.88;5110926;28;20048;-85
2023/05/08 04:32:07;;;;;;;12.90;5.90;;;;;;;10.87;100.00;100705.78;5114549;28;20465;-86
2023/05/08 04:34:35;;;;;;;12.48;6.00;;;;;;;10.99;100.00;100691.31;5114595;28;20481;-86
2023/05/08 04:37:02;;;;;;;14.55;6.28;;;;;;;10.78;100.00;100677.31;5116639;27;20067;-85
2023/05/08 04:39:29;;;;;;;13.32;5.85;;;;;;;10.69;100.00;100672.44;5116790;28;20047;-86
2023/05/08 04:42:01;;;;;;;13.32;5.72;;;;;;;10.91;100.00;100699.50;5114381;28;20044;-85
2023/05/08 04:44:28;;;;;;;11.48;5.13;;;;;;;10.83;100.00;100652.63;5113895;28;20055;-86
2023/05/08 04:46:55;;;;;;;11.57;5.18;;;;;;;10.70;100.00;100632.25;5115615;28;20051;-86
2023/05/08 04:49:22;;;;;;;12.43;5.80;;;;;;;11.02;100.00;100678.94;5114305;28;20504;-85
2023/05/08 04:51:48;;;;;;;9.55;4.70;;;;;;;11.06;100.00;100684.91;5114241;28;20044;-86
2023/05/08 04:54:15;;;;;;;11.35;5.63;;;;;;;10.96;100.00;100660.00;5114267;28;20047;-86
2023/05/08 04:56:42;;;;;;;12.85;6.65;;;;;;;10.85;100.00;100646.50;5110802;28;20044;-86
2023/05/08 04:59:08;;;;;;;14.75;5.60;;;;;;;10.91;100.00;100664.59;5107031;27;20059;-86
2023/05/08 05:01:35;;;;;;;14.90;6.43;;;;;;;10.61;100.00;100615.97;5105988;28;20043;-86
2023/05/08 05:04:02;;;;;;;12.05;5.00;;;;;;;10.73;100.00;100611.16;5111765;28;20047;-86
2023/05/08 05:06:30;;;;;;;20.38;6.75;;;;;;;10.83;100.00;100633.44;5113430;28;20054;-85
2023/05/08 05:08:56;;;;;;;11.52;5.25;;;;;;;11.15;100.00;100681.06;5112517;28;20063;-86
2023/05/08 05:11:23;;;;;;;10.68;5.13;;;;;;;11.07;100.00;100675.31;5103304;28;20047;-86
2023/05/08 05:13:50;;;;;;;10.82;4.35;;;;;;;11.19;100.00;100675.66;5112363;28;20043;-86
2023/05/08 05:16:17;;;;;;;12.55;5.38;;;;;;;11.12;100.00;100694.28;5107161;28;20047;-86
2023/05/08 05:18:43;;;;;;;10.75;4.25;;;;;;;11.05;100.00;100656.16;5093272;28;20075;-86
2023/05/08 05:21:10;;;;;;;14.00;6.53;;;;;;;10.77;100.00;100654.66;5097721;28;20522;-87
2023/05/08 05:23:37;;;;;;;19.33;5.93;;;;;;;10.93;100.00;100675.84;5113337;28;20054;-86
2023/05/08 05:26:04;;;;;;;13.30;5.63;;;;;;;11.12;100.00;100687.31;5115360;28;20047;-86
2023/05/08 05:28:31;;;;;;;11.65;5.20;;;;;;;10.99;100.00;100657.25;5110009;28;20739;-86
2023/05/08 05:30:57;;;;;;;14.95;5.55;;;;;;;11.07;100.00;100680.56;5111891;28;20500;-86
2023/05/08 05:33:24;;;;;;;17.33;6.25;;;;;;;10.78;100.00;100645.88;5110647;28;20104;-86
2023/05/08 05:35:51;;;;;;;15.13;5.85;;;;;;;10.87;100.00;100615.84;5110203;28;20044;-86
2023/05/08 05:38:17;;;;;;;15.05;6.20;;;;;;;11.04;100.00;100681.50;5108053;28;20048;-85
2023/05/08 05:40:44;;;;;;;14.38;5.50;;;;;;;11.09;100.00;100687.41;5101585;28;20047;-85
2023/05/08 05:43:11;;;;;;;13.43;5.57;;;;;;;10.87;100.00;100642.91;5111077;28;20427;-85
2023/05/08 05:45:38;;;;;;;14.00;5.85;;;;;;;11.02;100.00;100665.84;5092924;28;20055;-85
2023/05/08 05:48:06;;;;;;;11.88;4.28;;;;;;;11.23;100.00;100672.91;5106904;28;20131;-85
2023/05/08 05:50:33;;;;;;;12.40;4.53;;;;;;;10.96;100.00;100634.66;5110697;28;20047;-85
2023/05/08 05:52:59;;;;;;;11.77;4.45;;;;;;;11.00;100.00;100627.53;5112206;28;20062;-85
2023/05/08 05:55:27;;;;;;;13.52;5.57;;;;;;;11.06;100.00;100634.28;5113159;28;20048;-86
2023/05/08 05:57:53;;;;;;;17.42;6.65;;;;;;;11.19;100.00;100662.56;5113051;28;20051;-85
2023/05/08 06:00:21;;;;;;;10.52;4.03;;;;;;;11.25;100.00;100679.78;5114294;28;20039;-85
2023/05/08 06:02:47;;;;;;;13.93;5.25;;;;;;;10.79;100.00;100613.53;5111175;28;20043;-85
2023/05/08 06:05:14;;;;;;;12.40;4.20;;;;;;;10.89;100.00;100654.19;5112750;28;20055;-85
2023/05/08 06:07:41;;;;;;;12.35;4.15;;;;;;;10.87;100.00;100631.56;5113219;28;20051;-85
2023/05/08 06:10:08;;;;;;;19.83;6.57;;;;;;;10.86;100.00;100650.81;5099954;28;20051;-85
2023/05/08 06:12:35;;;;;;;14.52;4.75;;;;;;;10.64;100.00;100618.50;5110151;28;20051;-86
2023/05/08 06:15:02;;;;;;;14.30;4.50;;;;;;;10.99;100.00;100641.53;5100221;28;20046;-86
2023/05/08 06:17:30;;;;;;;13.95;4.30;;;;;;;11.23;100.00;100670.28;5101047;28;20100;-85
2023/05/08 06:19:57;;;;;;;10.90;3.92;;;;;;;11.14;100.00;100638.31;5109749;28;20075;-86
2023/05/08 06:22:24;;;;;;;13.05;4.22;;;;;;;11.23;100.00;100657.19;5102566;28;20472;-85
2023/05/08 06:24:54;;;;;;;13.05;3.95;;;;;;;11.19;100.00;100661.69;5111077;28;20410;-86
2023/05/08 06:27:21;;;;;;;11.35;3.47;;;;;;;11.30;100.00;100646.38;5113770;28;20100;-86
2023/05/08 06:29:51;;;;;;;14.18;3.85;;;;;;;11.39;100.00;100672.19;5112399;28;20055;-86
2023/05/08 06:32:19;;;;;;;11.05;3.67;;;;;;;11.09;100.00;100635.00;5113246;28;20401;-85
2023/05/08 06:34:46;;;;;;;14.20;3.72;;;;;;;11.24;100.00;100637.91;5099071;28;20511;-85
2023/05/08 06:37:14;;;;;;;13.32;3.50;;;;;;;11.42;100.00;100662.50;5099295;28;20048;-85
2023/05/08 06:39:41;;;;;;;12.25;3.63;;;;;;;11.56;100.00;100637.41;5103255;28;20052;-83
2023/05/08 06:42:08;;;;;;;13.68;3.85;;;;;;;11.57;100.00;100620.72;5096673;28;20048;-83
2023/05/08 06:44:35;;;;;;;13.23;4.38;;;;;;;11.50;100.00;100628.94;5112650;28;20058;-84
2023/05/08 06:47:02;;;;;;;8.93;3.25;;;;;;;11.63;100.00;100660.72;5107279;28;20471;-83
2023/05/08 06:49:29;;;;;;;16.88;3.75;;;;;;;11.46;100.00;100638.72;5094774;28;20055;-83
2023/05/08 06:51:56;;;;;;;13.55;4.03;;;;;;;11.48;100.00;100630.78;5094744;28;20413;-84
2023/05/08 06:54:23;;;;;;;18.42;4.57;;;;;;;11.49;100.00;100625.47;5107587;28;20053;-84
2023/05/08 06:56:53;;;;;;;18.45;4.25;;;;;;;11.69;100.00;100650.81;5100370;28;20055;-85
2023/05/08 06:59:22;;;;;;;13.05;4.10;;;;;;;11.76;100.00;100639.16;5099278;28;20056;-84
2023/05/08 07:01:49;;;;;;;15.77;4.03;;;;;;;11.53;100.00;100616.56;5110708;28;20062;-84
2023/05/08 07:04:16;;;;;;;14.27;3.70;;;;;;;11.95;100.00;100639.22;5108945;28;20066;-84
2023/05/08 07:06:45;;;;;;;17.92;3.75;;;;;;;11.86;100.00;100626.47;5110035;28;20044;-84
2023/05/08 07:09:15;;;;;;;12.40;3.53;;;;;;;11.92;100.00;100626.22;5101150;28;20127;-84
2023/05/08 07:11:46;;;;;;;14.00;3.75;;;;;;;11.79;100.00;100625.03;5111256;28;20387;-82
2023/05/08 07:14:21;;;;;;;13.70;4.35;;;;;;;11.70;100.00;100612.34;5100589;28;20040;-82
2023/05/08 07:16:48;;;;;;;17.33;4.50;;;;;;;11.40;100.00;100576.91;5110858;28;20048;-82
2023/05/08 07:19:14;;;;;;;12.68;3.90;;;;;;;11.42;100.00;100568.13;5108559;28;20055;-82
2023/05/08 07:21:41;;;;;;;12.75;3.50;;;;;;;11.35;100.00;100533.44;5097665;28;20055;-83
2023/05/08 07:24:08;;;;;;;14.43;4.07;;;;;;;11.47;100.00;100551.25;5097451;28;20089;-83
2023/05/08 07:26:35;;;;;;;10.60;3.90;;;;;;;11.96;100.00;100613.81;5106973;28;20047;-83
2023/05/08 07:29:01;;;;;;;15.13;3.85;;;;;;;11.65;100.00;100567.97;5104920;28;20051;-84
2023/05/08 07:31:28;;;;;;;18.45;3.90;;;;;;;11.33;100.00;100553.63;5106729;28;20047;-84
2023/05/08 07:33:55;;;;;;;16.88;4.45;;;;;;;11.56;100.00;100569.22;5109974;28;20078;-83
2023/05/08 07:36:23;;;;;;;16.25;4.10;;;;;;;11.49;100.00;100567.78;5104722;28;20843;-83
2023/05/08 07:38:50;;;;;;;15.82;4.70;;;;;;;11.44;100.00;100582.00;5107719;28;20573;-83
2023/05/08 07:41:17;;;;;;;11.38;3.58;;;;;;;11.29;100.00;100520.63;5109671;28;20056;-83
2023/05/08 07:43:44;;;;;;;14.18;4.13;;;;;;;11.85;100.00;100576.72;5112521;28;20055;-83
2023/05/08 07:46:17;;;;;;;12.25;3.53;;;;;;;11.62;100.00;100546.28;5108291;28;20048;-83
2023/05/08 07:48:44;;;;;;;12.23;3.70;;;;;;;11.74;100.00;100580.66;5104489;28;20070;-85
2023/05/08 07:51:11;;;;;;;12.88;3.35;;;;;;;11.95;100.00;100591.13;5103640;28;20044;-83
2023/05/08 07:53:44;;;;;;;13.43;4.57;;;;;;;11.87;100.00;100606.34;5107875;28;20060;-82
2023/05/08 07:56:11;;;;;;;13.57;3.85;;;;;;;11.88;100.00;100577.41;5106380;27;20484;-83
2023/05/08 07:58:38;;;;;;;9.93;3.10;;;;;;;11.51;100.00;100515.25;5103010;28;20463;-83
2023/05/08 08:01:04;;;;;;;10.07;3.47;;;;;;;11.88;100.00;100572.19;5096573;28;20090;-85
2023/05/08 08:03:31;;;;;;;12.30;3.55;;;;;;;12.10;100.00;100595.69;5107125;28;20051;-85
2023/05/08 08:05:58;;;;;;;13.15;4.28;;;;;;;11.85;100.00;100563.59;5100753;28;20052;-85
2023/05/08 08:08:25;;;;;;;11.20;3.50;;;;;;;11.88;100.00;100569.56;5107313;28;20055;-85
2023/05/08 08:10:52;;;;;;;13.85;4.22;;;;;;;11.81;100.00;100580.38;5108626;28;20477;-82
2023/05/08 08:13:18;;;;;;;16.33;4.20;;;;;;;11.80;100.00;100552.47;5099774;28;20043;-83
2023/05/08 08:15:45;;;;;;;12.93;3.83;;;;;;;12.04;100.00;100558.34;5105626;28;20048;-83
2023/05/08 08:18:12;;;;;;;15.38;4.22;;;;;;;11.91;100.00;100564.16;5107523;28;20109;-83
2023/05/08 08:20:39;;;;;;;17.60;4.53;;;;;;;12.04;100.00;100568.84;5107500;28;20497;-83
2023/05/08 08:23:05;;;;;;;12.23;4.15;;;;;;;12.02;100.00;100539.22;5106329;28;20040;-83
2023/05/08 08:25:32;;;;;;;10.63;3.88;;;;;;;12.39;100.00;100582.09;5113165;28;20044;-83
2023/05/08 08:27:59;;;;;;;12.30;3.97;;;;;;;12.12;100.00;100541.34;5111798;28;20052;-83
2023/05/08 08:30:26;;;;;;;12.75;3.70;;;;;;;12.21;100.00;100558.44;5113588;28;20047;-84
2023/05/08 08:32:52;;;;;;;16.08;4.25;;;;;;;12.03;100.00;100515.53;5107340;28;20055;-84
2023/05/08 08:35:19;;;;;;;11.30;3.42;;;;;;;12.56;100.00;100565.56;5113795;28;20075;-85
2023/05/08 08:37:46;;;;;;;11.20;3.30;;;;;;;12.51;100.00;100577.13;5109945;28;20054;-83
2023/05/08 08:40:13;;;;;;;12.88;4.75;;;;;;;12.19;100.00;100541.91;5118148;27;20058;-84
2023/05/08 08:42:40;;;;;;;12.82;3.72;;;;;;;12.10;100.00;100524.81;5111569;28;20043;-84
2023/05/08 08:45:07;;;;;;;10.18;3.00;;;;;;;12.19;100.00;100520.91;5103053;28;20420;-85
2023/05/08 08:47:40;;;;;;;14.82;4.00;;;;;;;12.45;100.00;100551.16;5104517;28;20048;-84
2023/05/08 08:50:08;;;;;;;11.82;3.90;;;;;;;12.34;100.00;100558.69;5109386;28;20617;-84
2023/05/08 08:55:30;;;;;;;14.38;4.18;;;;;;;12.23;100.00;100563.59;5100249;28;20051;-84
2023/05/08 08:58:15;;;;;;;11.65;3.45;;;;;;;12.10;100.00;100527.44;5115646;28;20446;-83
2023/05/08 09:00:42;;;;;;;8.75;2.90;;;;;;;12.24;100.00;100518.91;5112398;28;20051;-84
2023/05/08 09:03:09;;;;;;;11.70;3.30;;;;;;;12.07;100.00;100498.72;5112981;28;20044;-84
2023/05/08 09:05:37;;;;;;;10.20;3.67;;;;;;;11.94;100.00;100521.22;5114380;28;20040;-83
2023/05/08 09:08:04;;;;;;;14.88;3.95;;;;;;;11.97;100.00;100523.72;5098499;28;20058;-84
2023/05/08 09:10:31;;;;;;;15.85;3.97;;;;;;;11.69;100.00;100496.09;5113476;28;20493;-84
2023/05/08 09:12:58;;;;;;;11.68;3.38;;;;;;;12.05;100.00;100497.94;5097348;28;20048;-84
2023/05/08 09:15:25;;;;;;;14.45;3.70;;;;;;;12.26;100.00;100534.59;5102987;28;20093;-84
2023/05/08 09:17:52;;;;;;;13.10;3.75;;;;;;;12.33;100.00;100528.97;5104067;28;20051;-84
2023/05/08 09:20:19;;;;;;;10.35;3.13;;;;;;;12.23;100.00;100529.47;5113169;28;20648;-85
2023/05/08 09:22:47;;;;;;;10.45;3.20;;;;;;;12.41;100.00;100531.25;5112606;28;20055;-84
2023/05/08 09:25:14;;;;;;;16.00;4.53;;;;;;;12.39;100.00;100513.84;5107473;28;20611;-84
2023/05/08 09:27:41;;;;;;;12.63;4.32;;;;;;;12.14;100.00;100500.13;5108980;28;20126;-84
2023/05/08 09:30:10;;;;;;;10.65;3.22;;;;;;;12.30;100.00;100520.38;5113172;28;20489;-84
2023/05/08 09:32:39;;;;;;;15.00;3.95;;;;;;;12.51;100.00;100556.09;5113152;28;20047;-84
2023/05/08 09:35:07;;;;;;;9.23;3.53;;;;;;;12.12;100.00;100517.72;5109460;28;20044;-84
2023/05/08 09:37:38;;;;;;;11.45;3.72;;;;;;;12.19;100.00;100517.44;5107777;28;20093;-85
2023/05/08 09:40:21;;;;;;;10.25;3.97;;;;;;;12.03;100.00;100478.78;5112905;28;20059;-85
2023/05/08 09:42:49;;;;;;;8.82;3.88;;;;;;;12.33;100.00;100551.75;5111937;28;20451;-89
2023/05/08 09:45:30;;;;;;;16.50;4.88;;;;;;;12.21;100.00;100547.94;5114187;28;20048;-89
2023/05/08 09:47:57;;;;;;;13.80;5.00;;;;;;;11.88;100.00;100505.72;5099105;28;20121;-89
2023/05/08 09:50:24;;;;;;;14.15;4.47;;;;;;;12.12;100.00;100509.00;5115176;28;20075;-88
2023/05/08 09:52:51;;;;;;;12.52;4.65;;;;;;;12.03;100.00;100493.69;5112127;28;20127;-87
2023/05/08 09:55:19;;;;;;;10.57;4.70;;;;;;;11.75;100.00;100468.72;5114078;28;20050;-87
2023/05/08 09:57:57;;;;;;;10.27;4.40;;;;;;;12.35;100.00;100536.78;5098455;28;21617;-85
2023/05/08 10:00:26;;;;;;;13.38;5.30;;;;;;;12.24;100.00;100504.94;5107974;28;20043;-84
2023/05/08 10:02:58;;;;;;;14.38;4.68;;;;;;;11.87;100.00;100469.94;5111300;28;20049;-85
2023/05/08 10:05:26;;;;;;;11.13;4.40;;;;;;;12.45;100.00;100519.66;5112111;28;20055;-84
2023/05/08 10:07:53;;;;;;;12.43;4.97;;;;;;;11.91;100.00;100469.72;5105869;28;20052;-86
2023/05/08 10:10:29;;;;;;;14.23;3.80;;;;;;;12.24;100.00;100482.16;5106281;28;20050;-85
2023/05/08 10:12:57;;;;;;;16.10;5.80;;;;;;;12.09;100.00;100475.91;5111376;28;20580;-85
2023/05/08 10:15:28;;;;;;;11.35;5.10;;;;;;;11.93;100.00;100472.28;5108983;28;20048;-84
2023/05/08 10:18:05;;;;;;;12.90;6.15;;;;;;;12.40;100.00;100518.19;5107625;28;20058;-85
2023/05/08 10:20:34;;;;;;;12.23;4.53;;;;;;;12.30;100.00;100521.22;5099752;28;20081;-85
2023/05/08 10:23:02;;;;;;;13.80;5.10;;;;;;;12.07;100.00;100490.84;5112015;28;20052;-84
2023/05/08 10:25:33;;;;;;;10.38;4.05;;;;;;;12.00;100.00;100471.06;5108960;28;20043;-85
2023/05/08 10:28:17;;;;;;;13.48;5.07;;;;;;;11.77;100.00;100454.63;5099109;28;20412;-85
2023/05/08 10:30:47;;;;;;;8.73;3.35;;;;;;;12.39;100.00;100526.97;5095189;28;20059;-84
2023/05/08 10:33:19;;;;;;;11.30;3.83;;;;;;;12.22;100.00;100531.28;5101231;28;20043;-85
2023/05/08 10:35:47;;;;;;;12.40;4.00;;;;;;;12.42;100.00;100527.66;5107547;28;20055;-84
2023/05/08 10:38:15;;;;;;;11.95;4.13;;;;;;;12.33;100.00;100518.47;5105861;28;20051;-85
2023/05/08 10:40:42;;;;;;;11.30;4.63;;;;;;;12.02;100.00;100477.09;5097818;28;20450;-85
2023/05/08 10:43:10;;;;;;;10.82;3.42;;;;;;;12.26;100.00;100509.19;5111474;28;20043;-84
2023/05/08 10:45:37;;;;;;;12.70;3.60;;;;;;;12.12;100.00;100488.84;5093720;28;20052;-84
2023/05/08 10:48:04;;;;;;;11.90;3.88;;;;;;;12.38;100.00;100531.38;5106369;28;20405;-84
2023/05/08 10:50:55;;;;;;;11.98;3.75;;;;;;;12.40;100.00;100529.53;5111629;28;20048;-83
2023/05/08 10:53:56;;;;;;;8.63;2.72;;;;;;;12.40;100.00;100531.31;5099149;28;20048;-84
2023/05/08 10:56:27;;;;;;;11.32;3.08;;;;;;;12.18;100.00;100510.47;5124551;27;20048;-83
2023/05/08 10:58:58;;;;;;;8.90;3.15;;;;;;;12.06;100.00;100511.94;5107557;28;20127;-84
2023/05/08 11:01:25;;;;;;;10.63;3.00;;;;;;;12.17;100.00;100521.91;5110250;28;20533;-84
2023/05/08 11:03:54;;;;;;;17.30;3.95;;;;;;;11.80;100.00;100479.00;5111826;28;20048;-82
2023/05/08 11:06:42;;;;;;;9.65;3.03;;;;;;;12.16;100.00;100521.03;5110955;28;20122;-86
2023/05/08 11:09:14;;;;;;;11.45;3.22;;;;;;;11.76;100.00;100478.31;5097437;28;20048;-82
2023/05/08 11:12:00;;;;;;;11.00;3.47;;;;;;;11.68;100.00;100465.53;5113603;28;20040;-82
2023/05/08 11:14:28;;;;;;;17.40;4.18;;;;;;;11.76;100.00;100483.56;5115324;27;20039;-81
2023/05/08 11:17:00;;;;;;;15.48;3.40;;;;;;;12.08;100.00;100505.66;5116154;28;20058;-81
2023/05/08 11:19:27;;;;;;;10.50;3.00;;;;;;;11.98;100.00;100507.03;5110267;28;20361;-82
2023/05/08 11:22:12;;;;;;;13.18;3.88;;;;;;;11.95;100.00;100508.03;5112025;28;20051;-82
2023/05/08 11:24:51;;;;;;;11.50;3.05;;;;;;;11.95;100.00;100494.03;5107727;28;20109;-82
2023/05/08 11:27:29;;;;;;;11.60;3.17;;;;;;;11.65;100.00;100476.19;5106405;28;20401;-82
2023/05/08 11:30:19;;;;;;;11.30;3.30;;;;;;;11.83;100.00;100507.69;5111286;28;20048;-82